الصفحة الرئيسية
صور الأقمار الصناعية توقعات الطقس لمدة 15 يوممناخالتوقعات البحرية إعصار برق مطارأسئلة وأجوبة النشرة الإخبارية حول
طقس : أوروبا أفريقيا أمريكا الشمالية أمريكا الجنوبية آسيا أستراليا-أوقيانوسيا آخرون
لغات جهة اتصال

سكاكا, السعودية

دائرة عرض: 29-47N, خط طول: 040-06E, ارتفاع: 689 m


METAR: OESK 010100Z 27007KT CAVOK 15/08 Q1016 NOSIG
TAF: OESK 312230Z 0100/0206 01008G18KT 7000 FEW040 SCT100 TEMPO 0100/0112 4000 DU/BLDU

زمن: 04:32 (01:32 UTC)

مراقبة الطقس الحالي

تاريخ و وقت الإصدار 32 دقيقة قبل الساعة 01:00 UTC
ريح 7 kt من الغرب
درجة الحرارة 15°C
الرطوبة 63%
ضغط 1016 hPa
الرؤية 10 كم أو أكثر
الغيوم لا تقل 1500 م وليس السحاب الأسود

تغيير وحدة

توقعات

تاريخ و وقت الإصدار 3 ساعات و 2 دقيقة قبل الساعة 22:30 UTC
صالحة من التوقعات 01 في 00 بالتوقيت العالمي إلى 02 في 06 بالتوقيت العالمي
ريح 8 kt من الشمال تتزايد حتى 18 kt
الرؤية: 7000 m
غيوم متفرقة على ارتفاع 4000 ft
غيوم متفرقة على ارتفاع 10000 ft
مؤقت
من 01 في 00 بالتوقيت العالمي إلى 01 في 12 بالتوقيت العالمي
الرؤية: 4000 m
المعلومات الواردة في هذا الموقع يخضع إخلاء
طقس : أوروبا أفريقيا أمريكا الشمالية أمريكا الجنوبية آسيا أستراليا-أوقيانوسيا آخرون
صور الأقمار الصناعية توقعات الطقس لمدة 15 يوممناخالتوقعات البحرية إعصار برق مطارأسئلة وأجوبة لغات جهة اتصال النشرة الإخبارية حول